Time;durP1;ratioP1;P1;durP2;ratioP2;P2;SDS_P1;SDS_P2;PMS_P1;PMS_P2;Temp;Humidity;BMP_temperature;BMP_pressure;BME280_temperature;BME280_humidity;BME280_pressure;Samples;Min_cycle;Max_cycle;Signal;HPM_P1;HPM_P2
2019/11/18 00:00:37;;;;;;;11.7;8.25;;;;;;;4.39;100;94002.01;;;;
2019/11/18 00:01:39;;;;;;;11.7;8.25;;;;;;;4.39;100;94002.01;;;;
2019/11/18 00:02:40;;;;;;;11.7;8.25;;;;;;;4.39;100;94002.01;;;;
2019/11/18 00:03:41;;;;;;;13.3;8.85;;;;;;;4.1;100;94005.94;;;;
2019/11/18 00:04:42;;;;;;;13.3;8.85;;;;;;;4.1;100;94005.94;;;;
2019/11/18 00:05:43;;;;;;;13.3;8.85;;;;;;;4.1;100;94005.94;;;;
2019/11/18 00:06:45;;;;;;;13.3;8.85;;;;;;;4.1;100;94005.94;;;;
2019/11/18 00:07:46;;;;;;;13.3;8.85;;;;;;;4.1;100;94005.94;;;;
2019/11/18 00:08:47;;;;;;;13.3;8.85;;;;;;;4.1;100;94005.94;;;;
2019/11/18 00:09:48;;;;;;;13.3;8.85;;;;;;;4.1;100;94005.94;;;;
2019/11/18 00:10:49;;;;;;;13.3;8.85;;;;;;;4.1;100;94005.94;;;;
2019/11/18 00:11:50;;;;;;;13.3;8.85;;;;;;;4.1;100;94005.94;;;;
2019/11/18 00:12:51;;;;;;;13.3;8.85;;;;;;;4.1;100;94005.94;;;;
2019/11/18 00:13:59;;;;;;;14.15;9.650001;;;;;;;3.84;100;94003.25;;;;
2019/11/18 00:15:00;;;;;;;14.15;9.650001;;;;;;;3.84;100;94003.25;;;;
2019/11/18 00:16:40;;;;;;;14.15;9.650001;;;;;;;3.84;100;94003.25;;;;
2019/11/18 00:18:13;;;;;;;14.15;9.650001;;;;;;;3.84;100;94003.25;;;;
2019/11/18 00:19:14;;;;;;;14.15;9.650001;;;;;;;3.84;100;94003.25;;;;
2019/11/18 00:20:16;;;;;;;14.15;9.650001;;;;;;;3.84;100;94003.25;;;;
2019/11/18 00:21:17;;;;;;;14.15;9.650001;;;;;;;3.84;100;94003.25;;;;
2019/11/18 00:22:18;;;;;;;14.15;9.650001;;;;;;;3.84;100;94003.25;;;;
2019/11/18 00:23:19;;;;;;;14.15;9.650001;;;;;;;3.84;100;94003.25;;;;
2019/11/18 00:24:20;;;;;;;14.15;9.650001;;;;;;;3.84;100;94003.25;;;;
2019/11/18 00:25:22;;;;;;;14.7;9.5;;;;;;;3.7;100;94014.22;;;;
2019/11/18 00:26:23;;;;;;;14.7;9.5;;;;;;;3.7;100;94014.22;;;;
2019/11/18 00:27:24;;;;;;;14.7;9.5;;;;;;;3.7;100;94014.22;;;;
2019/11/18 00:28:25;;;;;;;14.7;9.5;;;;;;;3.7;100;94014.22;;;;
2019/11/18 00:29:26;;;;;;;14.7;9.5;;;;;;;3.7;100;94014.22;;;;
2019/11/18 00:30:27;;;;;;;14.7;9.5;;;;;;;3.7;100;94014.22;;;;
2019/11/18 00:31:28;;;;;;;14.7;9.5;;;;;;;3.7;100;94014.22;;;;
2019/11/18 00:32:29;;;;;;;14.7;9.5;;;;;;;3.7;100;94014.22;;;;
2019/11/18 00:33:31;;;;;;;14.7;9.5;;;;;;;3.7;100;94014.22;;;;
2019/11/18 00:34:32;;;;;;;14.7;9.5;;;;;;;3.7;100;94014.22;;;;
2019/11/18 00:35:33;;;;;;;13.85;9.450001;;;;;;;3.52;100;94014.24;;;;
2019/11/18 00:36:35;;;;;;;13.85;9.450001;;;;;;;3.52;100;94014.24;;;;
2019/11/18 00:37:36;;;;;;;13.85;9.450001;;;;;;;3.52;100;94014.24;;;;
2019/11/18 00:38:37;;;;;;;13.85;9.450001;;;;;;;3.52;100;94014.24;;;;
2019/11/18 00:39:38;;;;;;;13.85;9.450001;;;;;;;3.52;100;94014.24;;;;
2019/11/18 00:40:39;;;;;;;13.85;9.450001;;;;;;;3.52;100;94014.24;;;;
2019/11/18 00:41:58;;;;;;;13.85;9.450001;;;;;;;3.52;100;94014.24;;;;
2019/11/18 00:43:00;;;;;;;13.85;9.450001;;;;;;;3.52;100;94014.24;;;;
2019/11/18 00:44:01;;;;;;;13.85;9.450001;;;;;;;3.52;100;94014.24;;;;
2019/11/18 00:45:02;;;;;;;13.85;9.450001;;;;;;;3.52;100;94014.24;;;;
2019/11/18 00:46:04;;;;;;;13.45;9.550001;;;;;;;3.32;100;94026.48;;;;
2019/11/18 00:47:05;;;;;;;13.45;9.550001;;;;;;;3.32;100;94026.48;;;;
2019/11/18 00:48:06;;;;;;;13.45;9.550001;;;;;;;3.32;100;94026.48;;;;
2019/11/18 00:49:07;;;;;;;13.45;9.550001;;;;;;;3.32;100;94026.48;;;;
2019/11/18 00:50:08;;;;;;;13.45;9.550001;;;;;;;3.32;100;94026.48;;;;
2019/11/18 00:51:09;;;;;;;13.45;9.550001;;;;;;;3.32;100;94026.48;;;;
2019/11/18 00:52:10;;;;;;;13.45;9.550001;;;;;;;3.32;100;94026.48;;;;
2019/11/18 00:53:12;;;;;;;13.45;9.550001;;;;;;;3.32;100;94026.48;;;;
2019/11/18 00:54:13;;;;;;;13.45;9.550001;;;;;;;3.32;100;94026.48;;;;
2019/11/18 00:55:14;;;;;;;13.45;9.550001;;;;;;;3.32;100;94026.48;;;;
2019/11/18 00:56:15;;;;;;;13.45;9.550001;;;;;;;3.32;100;94026.48;;;;
2019/11/18 00:57:16;;;;;;;13.9;10;;;;;;;3.12;100;94039.21;;;;
2019/11/18 00:58:17;;;;;;;13.9;10;;;;;;;3.12;100;94039.21;;;;
2019/11/18 00:59:19;;;;;;;13.9;10;;;;;;;3.12;100;94039.21;;;;
2019/11/18 01:00:20;;;;;;;13.9;10;;;;;;;3.12;100;94039.21;;;;
2019/11/18 01:01:21;;;;;;;13.9;10;;;;;;;3.12;100;94039.21;;;;
2019/11/18 01:02:23;;;;;;;13.9;10;;;;;;;3.12;100;94039.21;;;;
2019/11/18 01:03:24;;;;;;;13.9;10;;;;;;;3.12;100;94039.21;;;;
2019/11/18 01:04:28;;;;;;;13.9;10;;;;;;;3.12;100;94039.21;;;;
2019/11/18 01:05:29;;;;;;;13.9;10;;;;;;;3.12;100;94039.21;;;;
2019/11/18 01:06:31;;;;;;;13.9;10;;;;;;;3.12;100;94039.21;;;;
2019/11/18 01:07:34;;;;;;;13.6;10;;;;;;;3.17;100;94074.44;;;;
2019/11/18 01:08:35;;;;;;;13.6;10;;;;;;;3.17;100;94074.44;;;;
2019/11/18 01:09:37;;;;;;;13.6;10;;;;;;;3.17;100;94074.44;;;;
2019/11/18 01:10:38;;;;;;;13.6;10;;;;;;;3.17;100;94074.44;;;;
2019/11/18 01:11:40;;;;;;;13.6;10;;;;;;;3.17;100;94074.44;;;;
2019/11/18 01:12:41;;;;;;;13.6;10;;;;;;;3.17;100;94074.44;;;;
2019/11/18 01:13:42;;;;;;;13.6;10;;;;;;;3.17;100;94074.44;;;;
2019/11/18 01:14:43;;;;;;;13.6;10;;;;;;;3.17;100;94074.44;;;;
2019/11/18 01:15:44;;;;;;;13.6;10;;;;;;;3.17;100;94074.44;;;;
2019/11/18 01:16:45;;;;;;;13.6;10;;;;;;;3.17;100;94074.44;;;;
2019/11/18 01:17:47;;;;;;;13.95;10.25;;;;;;;3.26;100;94088.7;;;;
2019/11/18 01:18:48;;;;;;;13.95;10.25;;;;;;;3.26;100;94088.7;;;;
2019/11/18 01:19:49;;;;;;;13.95;10.25;;;;;;;3.26;100;94088.7;;;;
2019/11/18 01:20:50;;;;;;;13.95;10.25;;;;;;;3.26;100;94088.7;;;;
2019/11/18 01:21:51;;;;;;;13.95;10.25;;;;;;;3.26;100;94088.7;;;;
2019/11/18 01:22:52;;;;;;;13.95;10.25;;;;;;;3.26;100;94088.7;;;;
2019/11/18 01:23:54;;;;;;;13.95;10.25;;;;;;;3.26;100;94088.7;;;;
2019/11/18 01:24:55;;;;;;;13.95;10.25;;;;;;;3.26;100;94088.7;;;;
2019/11/18 01:25:56;;;;;;;13.95;10.25;;;;;;;3.26;100;94088.7;;;;
2019/11/18 01:26:57;;;;;;;13.95;10.25;;;;;;;3.26;100;94088.7;;;;
2019/11/18 01:27:58;;;;;;;13.95;10.25;;;;;;;3.26;100;94088.7;;;;
2019/11/18 01:28:59;;;;;;;12.85;10;;;;;;;3.42;100;94084.25;;;;
2019/11/18 01:30:01;;;;;;;12.85;10;;;;;;;3.42;100;94084.25;;;;
2019/11/18 01:31:02;;;;;;;12.85;10;;;;;;;3.42;100;94084.25;;;;
2019/11/18 01:32:03;;;;;;;12.85;10;;;;;;;3.42;100;94084.25;;;;
2019/11/18 01:33:05;;;;;;;12.85;10;;;;;;;3.42;100;94084.25;;;;
2019/11/18 01:34:06;;;;;;;12.85;10;;;;;;;3.42;100;94084.25;;;;
2019/11/18 01:35:07;;;;;;;12.85;10;;;;;;;3.42;100;94084.25;;;;
2019/11/18 01:36:09;;;;;;;12.85;10;;;;;;;3.42;100;94084.25;;;;
2019/11/18 01:37:10;;;;;;;12.85;10;;;;;;;3.42;100;94084.25;;;;
2019/11/18 01:38:11;;;;;;;12.85;10;;;;;;;3.42;100;94084.25;;;;
2019/11/18 01:39:12;;;;;;;11.55;9.2;;;;;;;3.44;100;94069.64;;;;
2019/11/18 01:40:35;;;;;;;11.55;9.2;;;;;;;3.44;100;94069.64;;;;
2019/11/18 01:41:36;;;;;;;11.55;9.2;;;;;;;3.44;100;94069.64;;;;
2019/11/18 01:42:37;;;;;;;11.55;9.2;;;;;;;3.44;100;94069.64;;;;
2019/11/18 01:43:39;;;;;;;11.55;9.2;;;;;;;3.44;100;94069.64;;;;
2019/11/18 01:44:41;;;;;;;11.55;9.2;;;;;;;3.44;100;94069.64;;;;
2019/11/18 01:45:42;;;;;;;11.55;9.2;;;;;;;3.44;100;94069.64;;;;
2019/11/18 01:46:43;;;;;;;11.55;9.2;;;;;;;3.44;100;94069.64;;;;
2019/11/18 01:47:44;;;;;;;11.55;9.2;;;;;;;3.44;100;94069.64;;;;
2019/11/18 01:48:45;;;;;;;11.55;9.2;;;;;;;3.44;100;94069.64;;;;
2019/11/18 01:49:46;;;;;;;10.7;9.050001;;;;;;;3.41;100;94079.94;;;;
2019/11/18 01:50:47;;;;;;;10.7;9.050001;;;;;;;3.41;100;94079.94;;;;
2019/11/18 01:51:48;;;;;;;10.7;9.050001;;;;;;;3.41;100;94079.94;;;;
2019/11/18 01:52:50;;;;;;;10.7;9.050001;;;;;;;3.41;100;94079.94;;;;
2019/11/18 01:53:51;;;;;;;10.7;9.050001;;;;;;;3.41;100;94079.94;;;;
2019/11/18 01:54:52;;;;;;;10.7;9.050001;;;;;;;3.41;100;94079.94;;;;
2019/11/18 01:55:53;;;;;;;10.7;9.050001;;;;;;;3.41;100;94079.94;;;;
2019/11/18 01:56:54;;;;;;;10.7;9.050001;;;;;;;3.41;100;94079.94;;;;
2019/11/18 01:57:56;;;;;;;10.7;9.050001;;;;;;;3.41;100;94079.94;;;;
2019/11/18 01:58:57;;;;;;;10.7;9.050001;;;;;;;3.41;100;94079.94;;;;
2019/11/18 01:59:58;;;;;;;10.7;9.050001;;;;;;;3.41;100;94079.94;;;;
2019/11/18 02:00:59;;;;;;;10.6;9.1;;;;;;;3.31;100;94092.85;;;;
2019/11/18 02:02:00;;;;;;;10.6;9.1;;;;;;;3.31;100;94092.85;;;;
2019/11/18 02:03:05;;;;;;;10.6;9.1;;;;;;;3.31;100;94092.85;;;;
2019/11/18 02:04:06;;;;;;;10.6;9.1;;;;;;;3.31;100;94092.85;;;;
2019/11/18 02:05:07;;;;;;;10.6;9.1;;;;;;;3.31;100;94092.85;;;;
2019/11/18 02:06:08;;;;;;;10.6;9.1;;;;;;;3.31;100;94092.85;;;;
2019/11/18 02:07:10;;;;;;;10.6;9.1;;;;;;;3.31;100;94092.85;;;;
2019/11/18 02:08:11;;;;;;;10.6;9.1;;;;;;;3.31;100;94092.85;;;;
2019/11/18 02:09:12;;;;;;;10.6;9.1;;;;;;;3.31;100;94092.85;;;;
2019/11/18 02:10:35;;;;;;;10.6;9.1;;;;;;;3.31;100;94092.85;;;;
2019/11/18 02:11:37;;;;;;;9.599999;8.6;;;;;;;3.35;100;94118.98;;;;
2019/11/18 02:12:38;;;;;;;9.599999;8.6;;;;;;;3.35;100;94118.98;;;;
2019/11/18 02:13:39;;;;;;;9.599999;8.6;;;;;;;3.35;100;94118.98;;;;
2019/11/18 02:14:40;;;;;;;9.599999;8.6;;;;;;;3.35;100;94118.98;;;;
2019/11/18 02:15:42;;;;;;;9.599999;8.6;;;;;;;3.35;100;94118.98;;;;
2019/11/18 02:16:43;;;;;;;9.599999;8.6;;;;;;;3.35;100;94118.98;;;;
2019/11/18 02:18:10;;;;;;;9.599999;8.6;;;;;;;3.35;100;94118.98;;;;
2019/11/18 02:19:15;;;;;;;9.599999;8.6;;;;;;;3.35;100;94118.98;;;;
2019/11/18 02:20:17;;;;;;;9.599999;8.6;;;;;;;3.35;100;94118.98;;;;
2019/11/18 02:21:58;;;;;;;10.65;9.15;;;;;;;3.38;100;94104.27;;;;
2019/11/18 02:23:00;;;;;;;10.65;9.15;;;;;;;3.38;100;94104.27;;;;
2019/11/18 02:24:02;;;;;;;10.65;9.15;;;;;;;3.38;100;94104.27;;;;
2019/11/18 02:25:05;;;;;;;10.65;9.15;;;;;;;3.38;100;94104.27;;;;
2019/11/18 02:26:07;;;;;;;10.65;9.15;;;;;;;3.38;100;94104.27;;;;
2019/11/18 02:27:09;;;;;;;10.65;9.15;;;;;;;3.38;100;94104.27;;;;
2019/11/18 02:28:10;;;;;;;10.65;9.15;;;;;;;3.38;100;94104.27;;;;
2019/11/18 02:29:11;;;;;;;10.65;9.15;;;;;;;3.38;100;94104.27;;;;
2019/11/18 02:30:19;;;;;;;10.65;9.15;;;;;;;3.38;100;94104.27;;;;
2019/11/18 02:31:20;;;;;;;10.65;9.15;;;;;;;3.38;100;94104.27;;;;
2019/11/18 02:37:29;;;;;;;10.65;9.549999;;;;;;;3.42;100;94112.13;;;;
2019/11/18 02:38:30;;;;;;;10.65;9.549999;;;;;;;3.42;100;94112.13;;;;
2019/11/18 02:39:31;;;;;;;10.65;9.549999;;;;;;;3.42;100;94112.13;;;;
2019/11/18 02:40:33;;;;;;;10.65;9.549999;;;;;;;3.42;100;94112.13;;;;
2019/11/18 02:41:34;;;;;;;10.65;9.549999;;;;;;;3.42;100;94112.13;;;;
2019/11/18 02:42:35;;;;;;;10.65;9.25;;;;;;;3.29;100;94113.59;;;;
2019/11/18 02:43:36;;;;;;;10.65;9.25;;;;;;;3.29;100;94113.59;;;;
2019/11/18 02:44:37;;;;;;;10.65;9.25;;;;;;;3.29;100;94113.59;;;;
2019/11/18 02:45:38;;;;;;;10.65;9.25;;;;;;;3.29;100;94113.59;;;;
2019/11/18 02:46:47;;;;;;;10.65;9.25;;;;;;;3.29;100;94113.59;;;;
2019/11/18 02:47:48;;;;;;;10.65;9.25;;;;;;;3.29;100;94113.59;;;;
2019/11/18 02:48:49;;;;;;;10.65;9.25;;;;;;;3.29;100;94113.59;;;;
2019/11/18 02:49:51;;;;;;;10.65;9.25;;;;;;;3.29;100;94113.59;;;;
2019/11/18 02:50:52;;;;;;;10.65;9.25;;;;;;;3.29;100;94113.59;;;;
2019/11/18 02:51:53;;;;;;;10.65;9.25;;;;;;;3.29;100;94113.59;;;;
2019/11/18 02:52:54;;;;;;;10.65;9.25;;;;;;;3.29;100;94113.59;;;;
2019/11/18 02:53:55;;;;;;;9.599999;8.599999;;;;;;;3.17;100;94117.11;;;;
2019/11/18 02:54:57;;;;;;;9.599999;8.599999;;;;;;;3.17;100;94117.11;;;;
2019/11/18 02:55:58;;;;;;;9.599999;8.599999;;;;;;;3.17;100;94117.11;;;;
2019/11/18 02:56:59;;;;;;;9.599999;8.599999;;;;;;;3.17;100;94117.11;;;;
2019/11/18 02:58:01;;;;;;;9.599999;8.599999;;;;;;;3.17;100;94117.11;;;;
2019/11/18 02:59:02;;;;;;;9.599999;8.599999;;;;;;;3.17;100;94117.11;;;;
2019/11/18 03:00:03;;;;;;;9.599999;8.599999;;;;;;;3.17;100;94117.11;;;;
2019/11/18 03:01:05;;;;;;;9.599999;8.599999;;;;;;;3.17;100;94117.11;;;;
2019/11/18 03:02:06;;;;;;;9.599999;8.599999;;;;;;;3.17;100;94117.11;;;;
2019/11/18 03:03:07;;;;;;;9.599999;8.599999;;;;;;;3.17;100;94117.11;;;;
2019/11/18 03:04:08;;;;;;;10;9;;;;;;;3.18;100;94111.67;;;;
2019/11/18 03:05:10;;;;;;;10;9;;;;;;;3.18;100;94111.67;;;;
2019/11/18 03:06:11;;;;;;;10;9;;;;;;;3.18;100;94111.67;;;;
2019/11/18 03:07:13;;;;;;;10;9;;;;;;;3.18;100;94111.67;;;;
2019/11/18 03:08:14;;;;;;;10;9;;;;;;;3.18;100;94111.67;;;;
2019/11/18 03:09:15;;;;;;;10;9;;;;;;;3.18;100;94111.67;;;;
2019/11/18 03:10:16;;;;;;;10;9;;;;;;;3.18;100;94111.67;;;;
2019/11/18 03:11:18;;;;;;;10;9;;;;;;;3.18;100;94111.67;;;;
2019/11/18 03:12:19;;;;;;;10;9;;;;;;;3.18;100;94111.67;;;;
2019/11/18 03:13:21;;;;;;;10;9;;;;;;;3.18;100;94111.67;;;;
2019/11/18 03:14:22;;;;;;;10.6;9.500001;;;;;;;3.15;100;94103.3;;;;
2019/11/18 03:15:23;;;;;;;10.6;9.500001;;;;;;;3.15;100;94103.3;;;;
2019/11/18 03:16:24;;;;;;;10.6;9.500001;;;;;;;3.15;100;94103.3;;;;
2019/11/18 03:17:25;;;;;;;10.6;9.500001;;;;;;;3.15;100;94103.3;;;;
2019/11/18 03:18:27;;;;;;;10.6;9.500001;;;;;;;3.15;100;94103.3;;;;
2019/11/18 03:19:28;;;;;;;10.6;9.500001;;;;;;;3.15;100;94103.3;;;;
2019/11/18 03:20:29;;;;;;;10.6;9.500001;;;;;;;3.15;100;94103.3;;;;
2019/11/18 03:21:30;;;;;;;10.6;9.500001;;;;;;;3.15;100;94103.3;;;;
2019/11/18 03:22:31;;;;;;;10.6;9.500001;;;;;;;3.15;100;94103.3;;;;
2019/11/18 03:23:33;;;;;;;10.6;9.500001;;;;;;;3.15;100;94103.3;;;;
2019/11/18 03:24:34;;;;;;;10.6;9.500001;;;;;;;3.15;100;94103.3;;;;
2019/11/18 03:25:35;;;;;;;10.35;9.25;;;;;;;3.15;100;94104.63;;;;
2019/11/18 03:26:36;;;;;;;10.35;9.25;;;;;;;3.15;100;94104.63;;;;
2019/11/18 03:27:37;;;;;;;10.35;9.25;;;;;;;3.15;100;94104.63;;;;
2019/11/18 03:28:39;;;;;;;10.35;9.25;;;;;;;3.15;100;94104.63;;;;
2019/11/18 03:29:40;;;;;;;10.35;9.25;;;;;;;3.15;100;94104.63;;;;
2019/11/18 03:30:41;;;;;;;10.35;9.25;;;;;;;3.15;100;94104.63;;;;
2019/11/18 03:31:42;;;;;;;10.35;9.25;;;;;;;3.15;100;94104.63;;;;
2019/11/18 03:32:43;;;;;;;10.35;9.25;;;;;;;3.15;100;94104.63;;;;
2019/11/18 03:33:45;;;;;;;10.35;9.25;;;;;;;3.15;100;94104.63;;;;
2019/11/18 03:34:46;;;;;;;10.35;9.25;;;;;;;3.15;100;94104.63;;;;
2019/11/18 03:35:47;;;;;;;10.1;9.1;;;;;;;3.09;100;94118.32;;;;
2019/11/18 03:36:48;;;;;;;10.1;9.1;;;;;;;3.09;100;94118.32;;;;
2019/11/18 03:37:49;;;;;;;10.1;9.1;;;;;;;3.09;100;94118.32;;;;
2019/11/18 03:38:50;;;;;;;10.1;9.1;;;;;;;3.09;100;94118.32;;;;
2019/11/18 03:39:51;;;;;;;10.1;9.1;;;;;;;3.09;100;94118.32;;;;
2019/11/18 03:40:53;;;;;;;10.1;9.1;;;;;;;3.09;100;94118.32;;;;
2019/11/18 03:41:54;;;;;;;10.1;9.1;;;;;;;3.09;100;94118.32;;;;
2019/11/18 03:42:55;;;;;;;10.1;9.1;;;;;;;3.09;100;94118.32;;;;
2019/11/18 03:43:56;;;;;;;10.1;9.1;;;;;;;3.09;100;94118.32;;;;
2019/11/18 03:44:57;;;;;;;10.1;9.1;;;;;;;3.09;100;94118.32;;;;
2019/11/18 03:45:58;;;;;;;10.1;9.1;;;;;;;3.09;100;94118.32;;;;
2019/11/18 03:47:01;;;;;;;8.599999;7.75;;;;;;;3.1;100;94127.11;;;;
2019/11/18 03:48:02;;;;;;;8.599999;7.75;;;;;;;3.1;100;94127.11;;;;
2019/11/18 03:49:04;;;;;;;8.599999;7.75;;;;;;;3.1;100;94127.11;;;;
2019/11/18 03:50:05;;;;;;;8.599999;7.75;;;;;;;3.1;100;94127.11;;;;
2019/11/18 03:51:06;;;;;;;8.599999;7.75;;;;;;;3.1;100;94127.11;;;;
2019/11/18 03:52:09;;;;;;;8.599999;7.75;;;;;;;3.1;100;94127.11;;;;
2019/11/18 03:53:13;;;;;;;8.599999;7.75;;;;;;;3.1;100;94127.11;;;;
2019/11/18 03:54:16;;;;;;;8.599999;7.75;;;;;;;3.1;100;94127.11;;;;
2019/11/18 03:55:19;;;;;;;8.599999;7.75;;;;;;;3.1;100;94127.11;;;;
2019/11/18 03:56:20;;;;;;;8.599999;7.75;;;;;;;3.1;100;94127.11;;;;
2019/11/18 03:57:22;;;;;;;7.949999;7.15;;;;;;;3.01;100;94127.91;;;;
2019/11/18 03:58:24;;;;;;;7.949999;7.15;;;;;;;3.01;100;94127.91;;;;
2019/11/18 03:59:25;;;;;;;7.949999;7.15;;;;;;;3.01;100;94127.91;;;;
2019/11/18 04:00:27;;;;;;;7.949999;7.15;;;;;;;3.01;100;94127.91;;;;
2019/11/18 04:01:28;;;;;;;7.949999;7.15;;;;;;;3.01;100;94127.91;;;;
2019/11/18 04:02:29;;;;;;;7.949999;7.15;;;;;;;3.01;100;94127.91;;;;
2019/11/18 04:03:30;;;;;;;7.949999;7.15;;;;;;;3.01;100;94127.91;;;;
2019/11/18 04:04:31;;;;;;;7.949999;7.15;;;;;;;3.01;100;94127.91;;;;
2019/11/18 04:05:33;;;;;;;7.949999;7.15;;;;;;;3.01;100;94127.91;;;;
2019/11/18 04:06:34;;;;;;;7.949999;7.15;;;;;;;3.01;100;94127.91;;;;
2019/11/18 04:07:35;;;;;;;7.449999;6.700001;;;;;;;2.97;100;94140.96;;;;
2019/11/18 04:08:36;;;;;;;7.449999;6.700001;;;;;;;2.97;100;94140.96;;;;
2019/11/18 04:09:37;;;;;;;7.449999;6.700001;;;;;;;2.97;100;94140.96;;;;
2019/11/18 04:10:38;;;;;;;7.449999;6.700001;;;;;;;2.97;100;94140.96;;;;
2019/11/18 04:11:39;;;;;;;7.449999;6.700001;;;;;;;2.97;100;94140.96;;;;
2019/11/18 04:12:40;;;;;;;7.449999;6.700001;;;;;;;2.97;100;94140.96;;;;
2019/11/18 04:13:42;;;;;;;7.449999;6.700001;;;;;;;2.97;100;94140.96;;;;
2019/11/18 04:14:43;;;;;;;7.449999;6.700001;;;;;;;2.97;100;94140.96;;;;
2019/11/18 04:15:44;;;;;;;7.449999;6.700001;;;;;;;2.97;100;94140.96;;;;
2019/11/18 04:16:45;;;;;;;7.449999;6.700001;;;;;;;2.97;100;94140.96;;;;
2019/11/18 04:17:46;;;;;;;7.449999;6.700001;;;;;;;2.97;100;94140.96;;;;
2019/11/18 04:18:47;;;;;;;9.600002;7.200001;;;;;;;2.84;100;94161.49;;;;
2019/11/18 04:19:49;;;;;;;9.600002;7.200001;;;;;;;2.84;100;94161.49;;;;
2019/11/18 04:20:52;;;;;;;9.600002;7.200001;;;;;;;2.84;100;94161.49;;;;
2019/11/18 04:21:53;;;;;;;9.600002;7.200001;;;;;;;2.84;100;94161.49;;;;
2019/11/18 04:22:54;;;;;;;9.600002;7.200001;;;;;;;2.84;100;94161.49;;;;
2019/11/18 04:23:55;;;;;;;9.600002;7.200001;;;;;;;2.84;100;94161.49;;;;
2019/11/18 04:24:58;;;;;;;9.600002;7.200001;;;;;;;2.84;100;94161.49;;;;
2019/11/18 04:26:03;;;;;;;9.600002;7.200001;;;;;;;2.84;100;94161.49;;;;
2019/11/18 04:27:04;;;;;;;9.600002;7.200001;;;;;;;2.84;100;94161.49;;;;
2019/11/18 04:28:49;;;;;;;7.7;6.9;;;;;;;2.8;100;94159.36;;;;
2019/11/18 04:29:50;;;;;;;7.7;6.9;;;;;;;2.8;100;94159.36;;;;
2019/11/18 04:30:56;;;;;;;7.7;6.9;;;;;;;2.8;100;94159.36;;;;
2019/11/18 04:32:03;;;;;;;7.7;6.9;;;;;;;2.8;100;94159.36;;;;
2019/11/18 04:33:12;;;;;;;7.7;6.9;;;;;;;2.8;100;94159.36;;;;
2019/11/18 04:34:16;;;;;;;7.7;6.9;;;;;;;2.8;100;94159.36;;;;
2019/11/18 04:35:29;;;;;;;7.7;6.9;;;;;;;2.8;100;94159.36;;;;
2019/11/18 04:37:30;;;;;;;7.7;6.9;;;;;;;2.8;100;94159.36;;;;
2019/11/18 04:38:33;;;;;;;7.7;6.9;;;;;;;2.8;100;94159.36;;;;
2019/11/18 04:39:36;;;;;;;7.1;6.000001;;;;;;;2.68;100;94148.66;;;;
2019/11/18 04:40:39;;;;;;;7.1;6.000001;;;;;;;2.68;100;94148.66;;;;
2019/11/18 04:41:41;;;;;;;7.1;6.000001;;;;;;;2.68;100;94148.66;;;;
2019/11/18 04:42:45;;;;;;;7.1;6.000001;;;;;;;2.68;100;94148.66;;;;
2019/11/18 04:43:47;;;;;;;7.1;6.000001;;;;;;;2.68;100;94148.66;;;;
2019/11/18 04:44:48;;;;;;;7.1;6.000001;;;;;;;2.68;100;94148.66;;;;
2019/11/18 04:45:53;;;;;;;7.1;6.000001;;;;;;;2.68;100;94148.66;;;;
2019/11/18 04:46:58;;;;;;;7.1;6.000001;;;;;;;2.68;100;94148.66;;;;
2019/11/18 04:48:16;;;;;;;7.1;6.000001;;;;;;;2.68;100;94148.66;;;;
2019/11/18 04:49:21;;;;;;;7.1;6.000001;;;;;;;2.68;100;94148.66;;;;
2019/11/18 04:50:27;;;;;;;6.749999;5.95;;;;;;;2.59;100;94149.44;;;;
2019/11/18 04:51:31;;;;;;;6.749999;5.95;;;;;;;2.59;100;94149.44;;;;
2019/11/18 04:52:33;;;;;;;6.749999;5.95;;;;;;;2.59;100;94149.44;;;;
2019/11/18 04:53:34;;;;;;;6.749999;5.95;;;;;;;2.59;100;94149.44;;;;
2019/11/18 04:54:35;;;;;;;6.749999;5.95;;;;;;;2.59;100;94149.44;;;;
2019/11/18 04:55:36;;;;;;;6.749999;5.95;;;;;;;2.59;100;94149.44;;;;
2019/11/18 04:56:37;;;;;;;6.749999;5.95;;;;;;;2.59;100;94149.44;;;;
2019/11/18 04:57:38;;;;;;;6.749999;5.95;;;;;;;2.59;100;94149.44;;;;
2019/11/18 04:58:40;;;;;;;6.749999;5.95;;;;;;;2.59;100;94149.44;;;;
2019/11/18 04:59:41;;;;;;;6.749999;5.95;;;;;;;2.59;100;94149.44;;;;
2019/11/18 05:00:42;;;;;;;6.8;6.050001;;;;;;;2.43;100;94174.05;;;;
2019/11/18 05:01:43;;;;;;;6.8;6.050001;;;;;;;2.43;100;94174.05;;;;
2019/11/18 05:02:44;;;;;;;6.8;6.050001;;;;;;;2.43;100;94174.05;;;;
2019/11/18 05:03:45;;;;;;;6.8;6.050001;;;;;;;2.43;100;94174.05;;;;
2019/11/18 05:04:46;;;;;;;6.8;6.050001;;;;;;;2.43;100;94174.05;;;;
2019/11/18 05:05:48;;;;;;;6.8;6.050001;;;;;;;2.43;100;94174.05;;;;
2019/11/18 05:06:49;;;;;;;6.8;6.050001;;;;;;;2.43;100;94174.05;;;;
2019/11/18 05:07:50;;;;;;;6.8;6.050001;;;;;;;2.43;100;94174.05;;;;
2019/11/18 05:08:51;;;;;;;6.8;6.050001;;;;;;;2.43;100;94174.05;;;;
2019/11/18 05:09:52;;;;;;;6.8;6.050001;;;;;;;2.43;100;94174.05;;;;
2019/11/18 05:10:53;;;;;;;6.8;6.050001;;;;;;;2.43;100;94174.05;;;;
2019/11/18 05:11:54;;;;;;;5.75;5.25;;;;;;;2.33;100;94195.4;;;;
2019/11/18 05:12:56;;;;;;;5.75;5.25;;;;;;;2.33;100;94195.4;;;;
2019/11/18 05:13:57;;;;;;;5.75;5.25;;;;;;;2.33;100;94195.4;;;;
2019/11/18 05:14:58;;;;;;;5.75;5.25;;;;;;;2.33;100;94195.4;;;;
2019/11/18 05:16:39;;;;;;;5.75;5.25;;;;;;;2.33;100;94195.4;;;;
2019/11/18 05:17:43;;;;;;;5.75;5.25;;;;;;;2.33;100;94195.4;;;;
2019/11/18 05:18:47;;;;;;;5.75;5.25;;;;;;;2.33;100;94195.4;;;;
2019/11/18 05:19:49;;;;;;;5.75;5.25;;;;;;;2.33;100;94195.4;;;;
2019/11/18 05:20:50;;;;;;;5.75;5.25;;;;;;;2.33;100;94195.4;;;;
2019/11/18 05:21:52;;;;;;;6.45;5.749999;;;;;;;2.27;100;94202.89;;;;
2019/11/18 05:22:55;;;;;;;6.45;5.749999;;;;;;;2.27;100;94202.89;;;;
2019/11/18 05:23:59;;;;;;;6.45;5.749999;;;;;;;2.27;100;94202.89;;;;
2019/11/18 05:25:00;;;;;;;6.45;5.749999;;;;;;;2.27;100;94202.89;;;;
2019/11/18 05:26:02;;;;;;;6.45;5.749999;;;;;;;2.27;100;94202.89;;;;
2019/11/18 05:27:03;;;;;;;6.45;5.749999;;;;;;;2.27;100;94202.89;;;;
2019/11/18 05:28:05;;;;;;;6.45;5.749999;;;;;;;2.27;100;94202.89;;;;
2019/11/18 05:29:07;;;;;;;6.45;5.749999;;;;;;;2.27;100;94202.89;;;;
2019/11/18 05:30:08;;;;;;;6.45;5.749999;;;;;;;2.27;100;94202.89;;;;
2019/11/18 05:31:12;;;;;;;6.45;5.749999;;;;;;;2.27;100;94202.89;;;;
2019/11/18 05:32:15;;;;;;;6.349999;5.749999;;;;;;;2.11;100;94232.15;;;;
2019/11/18 05:33:19;;;;;;;6.349999;5.749999;;;;;;;2.11;100;94232.15;;;;
2019/11/18 05:34:22;;;;;;;6.349999;5.749999;;;;;;;2.11;100;94232.15;;;;
2019/11/18 05:35:23;;;;;;;6.349999;5.749999;;;;;;;2.11;100;94232.15;;;;
2019/11/18 05:36:58;;;;;;;6.349999;5.749999;;;;;;;2.11;100;94232.15;;;;
2019/11/18 05:37:59;;;;;;;6.349999;5.749999;;;;;;;2.11;100;94232.15;;;;
2019/11/18 05:39:00;;;;;;;6.349999;5.749999;;;;;;;2.11;100;94232.15;;;;
2019/11/18 05:40:04;;;;;;;6.349999;5.749999;;;;;;;2.11;100;94232.15;;;;
2019/11/18 05:41:06;;;;;;;6.349999;5.749999;;;;;;;2.11;100;94232.15;;;;
2019/11/18 05:42:07;;;;;;;6.349999;5.749999;;;;;;;2.11;100;94232.15;;;;
2019/11/18 05:43:11;;;;;;;6.5;5.9;;;;;;;2.04;100;94241.09;;;;
2019/11/18 05:44:12;;;;;;;6.5;5.9;;;;;;;2.04;100;94241.09;;;;
2019/11/18 05:45:13;;;;;;;6.5;5.9;;;;;;;2.04;100;94241.09;;;;
2019/11/18 05:46:14;;;;;;;6.5;5.9;;;;;;;2.04;100;94241.09;;;;
2019/11/18 05:47:16;;;;;;;6.5;5.9;;;;;;;2.04;100;94241.09;;;;
2019/11/18 05:48:17;;;;;;;6.5;5.9;;;;;;;2.04;100;94241.09;;;;
2019/11/18 05:49:28;;;;;;;6.5;5.9;;;;;;;2.04;100;94241.09;;;;
2019/11/18 05:50:30;;;;;;;6.5;5.9;;;;;;;2.04;100;94241.09;;;;
2019/11/18 05:51:31;;;;;;;6.5;5.9;;;;;;;2.04;100;94241.09;;;;
2019/11/18 05:52:32;;;;;;;6.5;5.9;;;;;;;2.04;100;94241.09;;;;
2019/11/18 05:53:33;;;;;;;6.15;5.55;;;;;;;1.95;100;94249.08;;;;
2019/11/18 05:54:34;;;;;;;6.15;5.55;;;;;;;1.95;100;94249.08;;;;
2019/11/18 05:55:36;;;;;;;6.15;5.55;;;;;;;1.95;100;94249.08;;;;
2019/11/18 05:56:37;;;;;;;6.15;5.55;;;;;;;1.95;100;94249.08;;;;
2019/11/18 05:57:38;;;;;;;6.15;5.55;;;;;;;1.95;100;94249.08;;;;
2019/11/18 05:58:39;;;;;;;6.15;5.55;;;;;;;1.95;100;94249.08;;;;
2019/11/18 05:59:40;;;;;;;6.15;5.55;;;;;;;1.95;100;94249.08;;;;
2019/11/18 06:00:41;;;;;;;6.15;5.55;;;;;;;1.95;100;94249.08;;;;
2019/11/18 06:01:42;;;;;;;6.15;5.55;;;;;;;1.95;100;94249.08;;;;
2019/11/18 06:02:44;;;;;;;6.15;5.55;;;;;;;1.95;100;94249.08;;;;
2019/11/18 06:03:45;;;;;;;6.15;5.55;;;;;;;1.95;100;94249.08;;;;
2019/11/18 06:04:46;;;;;;;6.4;5.4;;;;;;;1.83;100;94246.68;;;;
2019/11/18 06:05:47;;;;;;;6.4;5.4;;;;;;;1.83;100;94246.68;;;;
2019/11/18 06:06:48;;;;;;;6.4;5.4;;;;;;;1.83;100;94246.68;;;;
2019/11/18 06:07:49;;;;;;;6.4;5.4;;;;;;;1.83;100;94246.68;;;;
2019/11/18 06:08:50;;;;;;;6.4;5.4;;;;;;;1.83;100;94246.68;;;;
2019/11/18 06:09:51;;;;;;;6.4;5.4;;;;;;;1.83;100;94246.68;;;;
2019/11/18 06:10:53;;;;;;;6.4;5.4;;;;;;;1.83;100;94246.68;;;;
2019/11/18 06:11:54;;;;;;;6.4;5.4;;;;;;;1.83;100;94246.68;;;;
2019/11/18 06:12:55;;;;;;;6.4;5.4;;;;;;;1.83;100;94246.68;;;;
2019/11/18 06:13:56;;;;;;;6.4;5.4;;;;;;;1.83;100;94246.68;;;;
2019/11/18 06:14:57;;;;;;;6.5;5.699998;;;;;;;1.77;100;94264.89;;;;
2019/11/18 06:15:58;;;;;;;6.5;5.699998;;;;;;;1.77;100;94264.89;;;;
2019/11/18 06:16:59;;;;;;;6.5;5.699998;;;;;;;1.77;100;94264.89;;;;
2019/11/18 06:18:00;;;;;;;6.5;5.699998;;;;;;;1.77;100;94264.89;;;;
2019/11/18 06:19:01;;;;;;;6.5;5.699998;;;;;;;1.77;100;94264.89;;;;
2019/11/18 06:20:03;;;;;;;6.5;5.699998;;;;;;;1.77;100;94264.89;;;;
2019/11/18 06:21:04;;;;;;;6.5;5.699998;;;;;;;1.77;100;94264.89;;;;
2019/11/18 06:22:06;;;;;;;6.5;5.699998;;;;;;;1.77;100;94264.89;;;;